sensor_id;sensor_type;location;lat;lon;timestamp;P1;durP1;ratioP1;P2;durP2;ratioP2
64426;SDS011;50772;51.482;-0.580;2023-08-24T00:00:22;4.07;;;2.95;;
64426;SDS011;50772;51.482;-0.580;2023-08-24T00:02:47;3.67;;;3.33;;
64426;SDS011;50772;51.482;-0.580;2023-08-24T00:05:12;3.67;;;3.23;;
64426;SDS011;50772;51.482;-0.580;2023-08-24T00:07:38;3.60;;;3.40;;
64426;SDS011;50772;51.482;-0.580;2023-08-24T00:10:03;3.55;;;2.97;;
64426;SDS011;50772;51.482;-0.580;2023-08-24T00:12:29;3.28;;;3.08;;
64426;SDS011;50772;51.482;-0.580;2023-08-24T00:14:55;3.53;;;3.03;;
64426;SDS011;50772;51.482;-0.580;2023-08-24T00:17:20;3.42;;;3.13;;
64426;SDS011;50772;51.482;-0.580;2023-08-24T00:19:45;3.30;;;3.00;;
64426;SDS011;50772;51.482;-0.580;2023-08-24T00:22:11;3.33;;;3.03;;
64426;SDS011;50772;51.482;-0.580;2023-08-24T00:24:37;3.50;;;3.30;;
64426;SDS011;50772;51.482;-0.580;2023-08-24T00:27:02;6.13;;;3.20;;
64426;SDS011;50772;51.482;-0.580;2023-08-24T00:29:27;5.85;;;3.10;;
64426;SDS011;50772;51.482;-0.580;2023-08-24T00:31:52;4.37;;;3.57;;
64426;SDS011;50772;51.482;-0.580;2023-08-24T00:34:18;3.27;;;2.97;;
64426;SDS011;50772;51.482;-0.580;2023-08-24T00:36:45;3.80;;;2.90;;
64426;SDS011;50772;51.482;-0.580;2023-08-24T00:39:11;3.25;;;2.95;;
64426;SDS011;50772;51.482;-0.580;2023-08-24T00:41:36;2.95;;;2.75;;
64426;SDS011;50772;51.482;-0.580;2023-08-24T00:44:02;4.07;;;3.13;;
64426;SDS011;50772;51.482;-0.580;2023-08-24T00:46:27;3.53;;;3.17;;
64426;SDS011;50772;51.482;-0.580;2023-08-24T00:48:53;3.38;;;2.95;;
64426;SDS011;50772;51.482;-0.580;2023-08-24T00:51:22;3.80;;;2.72;;
64426;SDS011;50772;51.482;-0.580;2023-08-24T00:53:48;3.15;;;2.95;;
64426;SDS011;50772;51.482;-0.580;2023-08-24T00:56:13;3.05;;;2.90;;
64426;SDS011;50772;51.482;-0.580;2023-08-24T00:58:38;3.55;;;3.35;;
64426;SDS011;50772;51.482;-0.580;2023-08-24T01:01:04;3.53;;;3.20;;
64426;SDS011;50772;51.482;-0.580;2023-08-24T01:03:29;3.00;;;2.78;;
64426;SDS011;50772;51.482;-0.580;2023-08-24T01:05:54;3.08;;;2.85;;
64426;SDS011;50772;51.482;-0.580;2023-08-24T01:08:20;3.15;;;2.95;;
64426;SDS011;50772;51.482;-0.580;2023-08-24T01:13:11;3.07;;;2.93;;
64426;SDS011;50772;51.482;-0.580;2023-08-24T01:16:16;3.30;;;3.00;;
64426;SDS011;50772;51.482;-0.580;2023-08-24T01:18:33;3.38;;;3.08;;
64426;SDS011;50772;51.482;-0.580;2023-08-24T01:20:58;3.53;;;3.17;;
64426;SDS011;50772;51.482;-0.580;2023-08-24T01:28:36;4.22;;;3.15;;
64426;SDS011;50772;51.482;-0.580;2023-08-24T01:31:01;3.30;;;3.10;;
64426;SDS011;50772;51.482;-0.580;2023-08-24T01:33:28;3.75;;;3.20;;
64426;SDS011;50772;51.482;-0.580;2023-08-24T01:35:53;3.43;;;3.20;;
64426;SDS011;50772;51.482;-0.580;2023-08-24T01:38:19;3.13;;;2.92;;
64426;SDS011;50772;51.482;-0.580;2023-08-24T01:43:29;3.28;;;3.13;;
64426;SDS011;50772;51.482;-0.580;2023-08-24T01:45:55;3.05;;;2.92;;
64426;SDS011;50772;51.482;-0.580;2023-08-24T01:48:20;3.05;;;2.85;;
64426;SDS011;50772;51.482;-0.580;2023-08-24T01:50:49;3.08;;;2.92;;
64426;SDS011;50772;51.482;-0.580;2023-08-24T01:53:14;3.75;;;3.20;;
64426;SDS011;50772;51.482;-0.580;2023-08-24T01:55:44;5.03;;;3.42;;
64426;SDS011;50772;51.482;-0.580;2023-08-24T01:58:09;3.65;;;3.28;;
64426;SDS011;50772;51.482;-0.580;2023-08-24T02:00:34;4.50;;;3.53;;
64426;SDS011;50772;51.482;-0.580;2023-08-24T02:03:00;3.67;;;3.47;;
64426;SDS011;50772;51.482;-0.580;2023-08-24T02:05:25;4.07;;;3.75;;
64426;SDS011;50772;51.482;-0.580;2023-08-24T02:07:52;5.68;;;4.00;;
64426;SDS011;50772;51.482;-0.580;2023-08-24T02:10:18;7.88;;;4.40;;
64426;SDS011;50772;51.482;-0.580;2023-08-24T02:12:43;6.03;;;3.88;;
64426;SDS011;50772;51.482;-0.580;2023-08-24T02:15:11;4.00;;;3.70;;
64426;SDS011;50772;51.482;-0.580;2023-08-24T02:17:36;4.85;;;4.35;;
64426;SDS011;50772;51.482;-0.580;2023-08-24T02:20:02;4.13;;;3.72;;
64426;SDS011;50772;51.482;-0.580;2023-08-24T02:22:28;4.82;;;4.43;;
64426;SDS011;50772;51.482;-0.580;2023-08-24T02:24:53;5.68;;;3.67;;
64426;SDS011;50772;51.482;-0.580;2023-08-24T02:27:19;3.85;;;3.60;;
64426;SDS011;50772;51.482;-0.580;2023-08-24T02:30:02;4.03;;;3.67;;
64426;SDS011;50772;51.482;-0.580;2023-08-24T02:32:47;3.45;;;3.25;;
64426;SDS011;50772;51.482;-0.580;2023-08-24T02:35:15;3.70;;;3.45;;
64426;SDS011;50772;51.482;-0.580;2023-08-24T02:37:41;3.97;;;3.72;;
64426;SDS011;50772;51.482;-0.580;2023-08-24T02:40:06;4.60;;;3.63;;
64426;SDS011;50772;51.482;-0.580;2023-08-24T02:42:32;3.90;;;3.45;;
64426;SDS011;50772;51.482;-0.580;2023-08-24T02:44:57;4.00;;;3.50;;
64426;SDS011;50772;51.482;-0.580;2023-08-24T02:47:23;3.90;;;3.63;;
64426;SDS011;50772;51.482;-0.580;2023-08-24T02:49:48;3.60;;;3.30;;
64426;SDS011;50772;51.482;-0.580;2023-08-24T02:52:14;6.88;;;3.38;;
64426;SDS011;50772;51.482;-0.580;2023-08-24T02:54:39;3.92;;;3.58;;
64426;SDS011;50772;51.482;-0.580;2023-08-24T02:57:04;3.65;;;3.45;;
64426;SDS011;50772;51.482;-0.580;2023-08-24T02:59:29;4.18;;;3.78;;
64426;SDS011;50772;51.482;-0.580;2023-08-24T03:01:55;3.97;;;3.73;;
64426;SDS011;50772;51.482;-0.580;2023-08-24T03:04:20;3.47;;;3.28;;
64426;SDS011;50772;51.482;-0.580;2023-08-24T03:06:46;3.60;;;3.40;;
64426;SDS011;50772;51.482;-0.580;2023-08-24T03:09:14;3.65;;;3.35;;
64426;SDS011;50772;51.482;-0.580;2023-08-24T03:11:40;7.15;;;3.30;;
64426;SDS011;50772;51.482;-0.580;2023-08-24T03:14:05;4.13;;;3.60;;
64426;SDS011;50772;51.482;-0.580;2023-08-24T03:16:32;3.70;;;3.50;;
64426;SDS011;50772;51.482;-0.580;2023-08-24T03:18:57;4.18;;;3.65;;
64426;SDS011;50772;51.482;-0.580;2023-08-24T03:21:23;4.95;;;3.72;;
64426;SDS011;50772;51.482;-0.580;2023-08-24T03:23:48;4.03;;;3.73;;
64426;SDS011;50772;51.482;-0.580;2023-08-24T03:26:16;4.85;;;3.88;;
64426;SDS011;50772;51.482;-0.580;2023-08-24T03:28:42;4.60;;;4.18;;
64426;SDS011;50772;51.482;-0.580;2023-08-24T03:31:07;4.18;;;3.88;;
64426;SDS011;50772;51.482;-0.580;2023-08-24T03:33:33;4.95;;;4.40;;
64426;SDS011;50772;51.482;-0.580;2023-08-24T03:35:59;5.13;;;4.72;;
64426;SDS011;50772;51.482;-0.580;2023-08-24T03:38:25;5.40;;;4.38;;
64426;SDS011;50772;51.482;-0.580;2023-08-24T03:40:50;4.93;;;4.53;;
64426;SDS011;50772;51.482;-0.580;2023-08-24T03:43:15;4.90;;;4.10;;
64426;SDS011;50772;51.482;-0.580;2023-08-24T03:45:41;6.17;;;4.73;;
64426;SDS011;50772;51.482;-0.580;2023-08-24T03:48:07;5.43;;;4.35;;
64426;SDS011;50772;51.482;-0.580;2023-08-24T03:50:32;4.43;;;4.03;;
64426;SDS011;50772;51.482;-0.580;2023-08-24T03:52:57;7.90;;;4.45;;
64426;SDS011;50772;51.482;-0.580;2023-08-24T03:55:22;5.13;;;4.53;;
64426;SDS011;50772;51.482;-0.580;2023-08-24T03:57:48;5.68;;;4.07;;
64426;SDS011;50772;51.482;-0.580;2023-08-24T04:00:13;6.45;;;4.10;;
64426;SDS011;50772;51.482;-0.580;2023-08-24T04:02:39;4.45;;;4.05;;
64426;SDS011;50772;51.482;-0.580;2023-08-24T04:05:05;4.60;;;3.70;;
64426;SDS011;50772;51.482;-0.580;2023-08-24T04:07:30;4.50;;;3.88;;
64426;SDS011;50772;51.482;-0.580;2023-08-24T04:09:56;4.38;;;4.07;;
64426;SDS011;50772;51.482;-0.580;2023-08-24T04:12:21;3.83;;;3.63;;
64426;SDS011;50772;51.482;-0.580;2023-08-24T04:14:46;4.57;;;4.17;;
64426;SDS011;50772;51.482;-0.580;2023-08-24T04:17:12;4.03;;;3.75;;
64426;SDS011;50772;51.482;-0.580;2023-08-24T04:19:37;4.35;;;4.05;;
64426;SDS011;50772;51.482;-0.580;2023-08-24T04:22:02;4.93;;;4.07;;
64426;SDS011;50772;51.482;-0.580;2023-08-24T04:24:28;4.80;;;4.10;;
64426;SDS011;50772;51.482;-0.580;2023-08-24T04:26:53;4.00;;;3.70;;
64426;SDS011;50772;51.482;-0.580;2023-08-24T04:29:19;4.30;;;4.00;;
64426;SDS011;50772;51.482;-0.580;2023-08-24T04:31:44;4.03;;;3.73;;
64426;SDS011;50772;51.482;-0.580;2023-08-24T04:34:09;4.10;;;3.80;;
64426;SDS011;50772;51.482;-0.580;2023-08-24T04:36:37;4.30;;;3.92;;
64426;SDS011;50772;51.482;-0.580;2023-08-24T04:39:02;4.27;;;3.87;;
64426;SDS011;50772;51.482;-0.580;2023-08-24T04:41:28;6.60;;;3.90;;
64426;SDS011;50772;51.482;-0.580;2023-08-24T04:43:53;4.73;;;4.37;;
64426;SDS011;50772;51.482;-0.580;2023-08-24T04:46:19;4.72;;;4.05;;
64426;SDS011;50772;51.482;-0.580;2023-08-24T04:48:45;6.50;;;4.10;;
64426;SDS011;50772;51.482;-0.580;2023-08-24T04:51:10;4.60;;;3.90;;
64426;SDS011;50772;51.482;-0.580;2023-08-24T04:53:35;4.83;;;4.37;;
64426;SDS011;50772;51.482;-0.580;2023-08-24T04:56:00;4.20;;;3.90;;
64426;SDS011;50772;51.482;-0.580;2023-08-24T04:58:25;4.30;;;3.97;;
64426;SDS011;50772;51.482;-0.580;2023-08-24T05:00:51;5.32;;;4.38;;
64426;SDS011;50772;51.482;-0.580;2023-08-24T05:03:16;4.50;;;4.10;;
64426;SDS011;50772;51.482;-0.580;2023-08-24T05:05:42;4.40;;;4.05;;
64426;SDS011;50772;51.482;-0.580;2023-08-24T05:08:07;3.93;;;3.73;;
64426;SDS011;50772;51.482;-0.580;2023-08-24T05:10:35;4.40;;;4.00;;
64426;SDS011;50772;51.482;-0.580;2023-08-24T05:13:00;4.05;;;3.72;;
64426;SDS011;50772;51.482;-0.580;2023-08-24T05:15:26;10.02;;;4.07;;
64426;SDS011;50772;51.482;-0.580;2023-08-24T05:17:51;4.28;;;3.95;;
64426;SDS011;50772;51.482;-0.580;2023-08-24T05:20:21;5.75;;;4.20;;
64426;SDS011;50772;51.482;-0.580;2023-08-24T05:22:47;4.43;;;4.05;;
64426;SDS011;50772;51.482;-0.580;2023-08-24T05:25:12;4.57;;;4.15;;
64426;SDS011;50772;51.482;-0.580;2023-08-24T05:27:37;4.28;;;3.97;;
64426;SDS011;50772;51.482;-0.580;2023-08-24T05:30:03;7.60;;;4.60;;
64426;SDS011;50772;51.482;-0.580;2023-08-24T05:32:29;4.40;;;4.00;;
64426;SDS011;50772;51.482;-0.580;2023-08-24T05:34:54;4.72;;;3.85;;
64426;SDS011;50772;51.482;-0.580;2023-08-24T05:37:19;4.40;;;4.10;;
64426;SDS011;50772;51.482;-0.580;2023-08-24T05:39:44;4.18;;;3.92;;
64426;SDS011;50772;51.482;-0.580;2023-08-24T05:42:10;4.55;;;4.18;;
64426;SDS011;50772;51.482;-0.580;2023-08-24T05:44:35;4.10;;;3.80;;
64426;SDS011;50772;51.482;-0.580;2023-08-24T05:47:00;4.53;;;4.17;;
64426;SDS011;50772;51.482;-0.580;2023-08-24T05:49:25;4.75;;;3.85;;
64426;SDS011;50772;51.482;-0.580;2023-08-24T05:51:51;4.13;;;3.83;;
64426;SDS011;50772;51.482;-0.580;2023-08-24T05:54:16;4.60;;;4.07;;
64426;SDS011;50772;51.482;-0.580;2023-08-24T05:56:45;7.03;;;4.00;;
64426;SDS011;50772;51.482;-0.580;2023-08-24T05:59:10;4.28;;;3.97;;
64426;SDS011;50772;51.482;-0.580;2023-08-24T06:01:35;4.50;;;4.10;;
64426;SDS011;50772;51.482;-0.580;2023-08-24T06:04:04;4.22;;;3.92;;
64426;SDS011;50772;51.482;-0.580;2023-08-24T06:06:29;4.07;;;3.83;;
64426;SDS011;50772;51.482;-0.580;2023-08-24T06:08:55;5.35;;;4.07;;
64426;SDS011;50772;51.482;-0.580;2023-08-24T06:11:20;5.82;;;4.03;;
64426;SDS011;50772;51.482;-0.580;2023-08-24T06:13:45;4.27;;;3.97;;
64426;SDS011;50772;51.482;-0.580;2023-08-24T06:16:10;6.70;;;4.22;;
64426;SDS011;50772;51.482;-0.580;2023-08-24T06:18:36;5.17;;;4.70;;
64426;SDS011;50772;51.482;-0.580;2023-08-24T06:21:01;12.52;;;4.43;;
64426;SDS011;50772;51.482;-0.580;2023-08-24T06:23:26;8.27;;;4.20;;
64426;SDS011;50772;51.482;-0.580;2023-08-24T06:25:52;7.68;;;4.50;;
64426;SDS011;50772;51.482;-0.580;2023-08-24T06:28:17;4.33;;;4.00;;
64426;SDS011;50772;51.482;-0.580;2023-08-24T06:30:42;7.03;;;4.43;;
64426;SDS011;50772;51.482;-0.580;2023-08-24T06:33:16;7.45;;;4.68;;
64426;SDS011;50772;51.482;-0.580;2023-08-24T06:35:42;4.18;;;3.78;;
64426;SDS011;50772;51.482;-0.580;2023-08-24T06:41:05;4.68;;;4.28;;
64426;SDS011;50772;51.482;-0.580;2023-08-24T06:43:30;3.75;;;3.55;;
64426;SDS011;50772;51.482;-0.580;2023-08-24T06:45:56;4.50;;;4.10;;
64426;SDS011;50772;51.482;-0.580;2023-08-24T06:48:21;4.53;;;4.22;;
64426;SDS011;50772;51.482;-0.580;2023-08-24T06:50:46;6.07;;;4.60;;
64426;SDS011;50772;51.482;-0.580;2023-08-24T06:53:12;4.40;;;4.03;;
64426;SDS011;50772;51.482;-0.580;2023-08-24T06:55:37;6.35;;;4.75;;
64426;SDS011;50772;51.482;-0.580;2023-08-24T06:58:02;5.03;;;4.22;;
64426;SDS011;50772;51.482;-0.580;2023-08-24T07:00:30;4.97;;;4.22;;
64426;SDS011;50772;51.482;-0.580;2023-08-24T07:02:58;4.70;;;4.10;;
64426;SDS011;50772;51.482;-0.580;2023-08-24T07:05:24;4.18;;;3.97;;
64426;SDS011;50772;51.482;-0.580;2023-08-24T07:07:50;4.38;;;4.05;;
64426;SDS011;50772;51.482;-0.580;2023-08-24T07:10:15;6.82;;;4.20;;
64426;SDS011;50772;51.482;-0.580;2023-08-24T07:12:40;4.78;;;4.30;;
64426;SDS011;50772;51.482;-0.580;2023-08-24T07:15:06;4.30;;;3.90;;
64426;SDS011;50772;51.482;-0.580;2023-08-24T07:17:31;4.82;;;4.53;;
64426;SDS011;50772;51.482;-0.580;2023-08-24T07:20:00;6.07;;;4.07;;
64426;SDS011;50772;51.482;-0.580;2023-08-24T07:22:25;4.65;;;3.75;;
64426;SDS011;50772;51.482;-0.580;2023-08-24T07:24:51;3.90;;;3.65;;
64426;SDS011;50772;51.482;-0.580;2023-08-24T07:27:17;4.32;;;4.00;;
64426;SDS011;50772;51.482;-0.580;2023-08-24T07:29:42;4.30;;;3.90;;
64426;SDS011;50772;51.482;-0.580;2023-08-24T07:32:08;5.17;;;4.10;;
64426;SDS011;50772;51.482;-0.580;2023-08-24T07:34:33;4.00;;;3.67;;
64426;SDS011;50772;51.482;-0.580;2023-08-24T07:36:59;4.20;;;3.90;;
64426;SDS011;50772;51.482;-0.580;2023-08-24T07:39:24;3.70;;;3.50;;
64426;SDS011;50772;51.482;-0.580;2023-08-24T07:41:53;4.35;;;4.10;;
64426;SDS011;50772;51.482;-0.580;2023-08-24T07:44:19;4.55;;;3.60;;
64426;SDS011;50772;51.482;-0.580;2023-08-24T07:46:44;6.35;;;3.97;;
64426;SDS011;50772;51.482;-0.580;2023-08-24T07:49:10;4.57;;;4.18;;
64426;SDS011;50772;51.482;-0.580;2023-08-24T07:51:35;4.50;;;4.10;;
64426;SDS011;50772;51.482;-0.580;2023-08-24T07:54:03;4.38;;;4.00;;
64426;SDS011;50772;51.482;-0.580;2023-08-24T07:56:29;4.60;;;4.20;;
64426;SDS011;50772;51.482;-0.580;2023-08-24T07:58:55;4.07;;;3.78;;
64426;SDS011;50772;51.482;-0.580;2023-08-24T08:01:20;4.57;;;4.28;;
64426;SDS011;50772;51.482;-0.580;2023-08-24T08:03:45;4.30;;;4.00;;
64426;SDS011;50772;51.482;-0.580;2023-08-24T08:06:10;6.68;;;4.07;;
64426;SDS011;50772;51.482;-0.580;2023-08-24T08:08:37;6.57;;;4.20;;
64426;SDS011;50772;51.482;-0.580;2023-08-24T08:11:02;7.93;;;3.97;;
64426;SDS011;50772;51.482;-0.580;2023-08-24T08:13:29;4.18;;;3.85;;
64426;SDS011;50772;51.482;-0.580;2023-08-24T08:16:15;6.32;;;4.32;;
64426;SDS011;50772;51.482;-0.580;2023-08-24T08:18:40;4.03;;;3.72;;
64426;SDS011;50772;51.482;-0.580;2023-08-24T08:21:15;6.22;;;4.00;;
64426;SDS011;50772;51.482;-0.580;2023-08-24T08:23:51;8.02;;;4.40;;
64426;SDS011;50772;51.482;-0.580;2023-08-24T08:26:20;4.07;;;3.88;;
64426;SDS011;50772;51.482;-0.580;2023-08-24T08:28:45;5.57;;;4.10;;
64426;SDS011;50772;51.482;-0.580;2023-08-24T08:31:10;4.57;;;4.18;;
64426;SDS011;50772;51.482;-0.580;2023-08-24T08:33:35;4.78;;;4.47;;
64426;SDS011;50772;51.482;-0.580;2023-08-24T08:36:01;5.47;;;4.53;;
64426;SDS011;50772;51.482;-0.580;2023-08-24T08:38:27;5.00;;;4.68;;
64426;SDS011;50772;51.482;-0.580;2023-08-24T08:40:56;4.35;;;4.05;;
64426;SDS011;50772;51.482;-0.580;2023-08-24T08:43:22;4.30;;;3.90;;
64426;SDS011;50772;51.482;-0.580;2023-08-24T08:45:50;5.15;;;4.47;;
64426;SDS011;50772;51.482;-0.580;2023-08-24T08:48:16;5.47;;;4.93;;
64426;SDS011;50772;51.482;-0.580;2023-08-24T08:50:42;7.85;;;5.20;;
64426;SDS011;50772;51.482;-0.580;2023-08-24T08:53:07;6.18;;;4.97;;
64426;SDS011;50772;51.482;-0.580;2023-08-24T08:55:33;4.97;;;4.57;;
64426;SDS011;50772;51.482;-0.580;2023-08-24T08:57:58;7.18;;;4.70;;
64426;SDS011;50772;51.482;-0.580;2023-08-24T09:00:25;4.88;;;4.47;;
64426;SDS011;50772;51.482;-0.580;2023-08-24T09:02:51;6.63;;;5.07;;
64426;SDS011;50772;51.482;-0.580;2023-08-24T09:05:17;4.28;;;4.07;;
64426;SDS011;50772;51.482;-0.580;2023-08-24T09:07:42;6.75;;;4.07;;
64426;SDS011;50772;51.482;-0.580;2023-08-24T09:10:08;5.20;;;4.38;;
64426;SDS011;50772;51.482;-0.580;2023-08-24T09:12:33;3.90;;;3.70;;
64426;SDS011;50772;51.482;-0.580;2023-08-24T09:15:01;4.40;;;4.00;;
64426;SDS011;50772;51.482;-0.580;2023-08-24T09:17:27;4.78;;;4.20;;
64426;SDS011;50772;51.482;-0.580;2023-08-24T09:19:53;4.53;;;4.13;;
64426;SDS011;50772;51.482;-0.580;2023-08-24T09:22:22;4.30;;;3.90;;
64426;SDS011;50772;51.482;-0.580;2023-08-24T09:24:48;11.77;;;4.07;;
64426;SDS011;50772;51.482;-0.580;2023-08-24T09:27:15;4.40;;;3.92;;
64426;SDS011;50772;51.482;-0.580;2023-08-24T09:29:47;4.25;;;3.70;;
64426;SDS011;50772;51.482;-0.580;2023-08-24T09:32:13;4.03;;;3.60;;
64426;SDS011;50772;51.482;-0.580;2023-08-24T09:34:38;3.30;;;3.03;;
64426;SDS011;50772;51.482;-0.580;2023-08-24T09:37:04;3.35;;;3.15;;
64426;SDS011;50772;51.482;-0.580;2023-08-24T09:39:32;3.80;;;3.30;;
64426;SDS011;50772;51.482;-0.580;2023-08-24T09:42:00;3.63;;;3.30;;
64426;SDS011;50772;51.482;-0.580;2023-08-24T09:44:28;3.33;;;3.13;;
64426;SDS011;50772;51.482;-0.580;2023-08-24T09:46:53;3.20;;;3.00;;
64426;SDS011;50772;51.482;-0.580;2023-08-24T09:49:19;3.92;;;2.90;;
64426;SDS011;50772;51.482;-0.580;2023-08-24T09:51:46;2.85;;;2.65;;
64426;SDS011;50772;51.482;-0.580;2023-08-24T09:54:16;3.08;;;2.58;;
64426;SDS011;50772;51.482;-0.580;2023-08-24T09:56:44;6.50;;;2.67;;
64426;SDS011;50772;51.482;-0.580;2023-08-24T09:59:14;2.88;;;2.40;;
64426;SDS011;50772;51.482;-0.580;2023-08-24T10:01:42;2.08;;;1.98;;
64426;SDS011;50772;51.482;-0.580;2023-08-24T10:04:12;2.17;;;2.08;;
64426;SDS011;50772;51.482;-0.580;2023-08-24T10:06:38;2.67;;;2.10;;
64426;SDS011;50772;51.482;-0.580;2023-08-24T10:09:07;2.10;;;2.00;;
64426;SDS011;50772;51.482;-0.580;2023-08-24T10:11:34;2.67;;;1.60;;
64426;SDS011;50772;51.482;-0.580;2023-08-24T10:16:26;3.53;;;2.20;;
64426;SDS011;50772;51.482;-0.580;2023-08-24T10:18:55;1.70;;;1.60;;
64426;SDS011;50772;51.482;-0.580;2023-08-24T10:21:20;2.10;;;2.00;;
64426;SDS011;50772;51.482;-0.580;2023-08-24T10:23:50;4.03;;;2.15;;
64426;SDS011;50772;51.482;-0.580;2023-08-24T10:26:15;2.22;;;2.03;;
64426;SDS011;50772;51.482;-0.580;2023-08-24T10:28:42;2.17;;;1.98;;
64426;SDS011;50772;51.482;-0.580;2023-08-24T10:31:11;2.00;;;1.90;;
64426;SDS011;50772;51.482;-0.580;2023-08-24T10:33:36;2.03;;;1.90;;
64426;SDS011;50772;51.482;-0.580;2023-08-24T10:36:05;2.90;;;2.08;;
64426;SDS011;50772;51.482;-0.580;2023-08-24T10:38:33;2.20;;;2.00;;
64426;SDS011;50772;51.482;-0.580;2023-08-24T10:41:04;3.78;;;2.80;;
64426;SDS011;50772;51.482;-0.580;2023-08-24T10:43:30;3.80;;;3.60;;
64426;SDS011;50772;51.482;-0.580;2023-08-24T10:45:59;4.47;;;3.28;;
64426;SDS011;50772;51.482;-0.580;2023-08-24T10:48:28;4.00;;;3.38;;
64426;SDS011;50772;51.482;-0.580;2023-08-24T10:53:38;2.90;;;2.70;;
64426;SDS011;50772;51.482;-0.580;2023-08-24T10:56:10;2.10;;;1.90;;
64426;SDS011;50772;51.482;-0.580;2023-08-24T10:58:37;2.20;;;2.00;;
64426;SDS011;50772;51.482;-0.580;2023-08-24T11:01:02;1.90;;;1.80;;
64426;SDS011;50772;51.482;-0.580;2023-08-24T11:03:33;2.23;;;2.03;;
64426;SDS011;50772;51.482;-0.580;2023-08-24T11:05:59;2.08;;;1.90;;
64426;SDS011;50772;51.482;-0.580;2023-08-24T11:11:17;2.65;;;1.77;;
64426;SDS011;50772;51.482;-0.580;2023-08-24T11:14:12;1.80;;;1.70;;
64426;SDS011;50772;51.482;-0.580;2023-08-24T11:16:38;1.75;;;1.65;;
64426;SDS011;50772;51.482;-0.580;2023-08-24T11:19:04;2.03;;;1.65;;
64426;SDS011;50772;51.482;-0.580;2023-08-24T11:21:31;1.95;;;1.80;;
64426;SDS011;50772;51.482;-0.580;2023-08-24T11:23:56;1.80;;;1.70;;
64426;SDS011;50772;51.482;-0.580;2023-08-24T11:26:21;1.63;;;1.47;;
64426;SDS011;50772;51.482;-0.580;2023-08-24T11:28:47;2.38;;;1.70;;
64426;SDS011;50772;51.482;-0.580;2023-08-24T11:31:17;1.98;;;1.88;;
64426;SDS011;50772;51.482;-0.580;2023-08-24T11:33:46;1.65;;;1.55;;
64426;SDS011;50772;51.482;-0.580;2023-08-24T11:36:11;2.17;;;2.08;;
64426;SDS011;50772;51.482;-0.580;2023-08-24T11:38:43;1.83;;;1.73;;
64426;SDS011;50772;51.482;-0.580;2023-08-24T11:41:14;1.90;;;1.80;;
64426;SDS011;50772;51.482;-0.580;2023-08-24T11:43:39;1.77;;;1.65;;
64426;SDS011;50772;51.482;-0.580;2023-08-24T11:46:10;2.78;;;2.00;;
64426;SDS011;50772;51.482;-0.580;2023-08-24T11:48:37;2.05;;;1.70;;
64426;SDS011;50772;51.482;-0.580;2023-08-24T11:51:06;2.25;;;1.73;;
64426;SDS011;50772;51.482;-0.580;2023-08-24T11:53:42;2.65;;;1.83;;
64426;SDS011;50772;51.482;-0.580;2023-08-24T11:56:08;1.73;;;1.63;;
64426;SDS011;50772;51.482;-0.580;2023-08-24T11:58:37;1.85;;;1.75;;
64426;SDS011;50772;51.482;-0.580;2023-08-24T12:01:03;1.67;;;1.58;;
64426;SDS011;50772;51.482;-0.580;2023-08-24T12:03:28;1.88;;;1.60;;
64426;SDS011;50772;51.482;-0.580;2023-08-24T12:05:58;1.80;;;1.70;;
64426;SDS011;50772;51.482;-0.580;2023-08-24T12:08:24;1.92;;;1.63;;
64426;SDS011;50772;51.482;-0.580;2023-08-24T12:10:49;1.80;;;1.70;;
64426;SDS011;50772;51.482;-0.580;2023-08-24T12:13:17;1.98;;;1.73;;
64426;SDS011;50772;51.482;-0.580;2023-08-24T12:15:42;1.95;;;1.77;;
64426;SDS011;50772;51.482;-0.580;2023-08-24T12:18:11;1.30;;;1.30;;
64426;SDS011;50772;51.482;-0.580;2023-08-24T12:20:40;1.55;;;1.45;;
64426;SDS011;50772;51.482;-0.580;2023-08-24T12:23:05;1.42;;;1.42;;
64426;SDS011;50772;51.482;-0.580;2023-08-24T12:25:35;1.30;;;1.30;;
64426;SDS011;50772;51.482;-0.580;2023-08-24T12:28:10;1.45;;;1.35;;
64426;SDS011;50772;51.482;-0.580;2023-08-24T12:30:45;1.42;;;1.42;;
64426;SDS011;50772;51.482;-0.580;2023-08-24T12:33:21;1.80;;;1.70;;
64426;SDS011;50772;51.482;-0.580;2023-08-24T12:35:48;1.70;;;1.60;;
64426;SDS011;50772;51.482;-0.580;2023-08-24T12:38:15;1.42;;;1.35;;
64426;SDS011;50772;51.482;-0.580;2023-08-24T12:40:40;1.67;;;1.30;;
64426;SDS011;50772;51.482;-0.580;2023-08-24T12:43:05;1.50;;;1.40;;
64426;SDS011;50772;51.482;-0.580;2023-08-24T12:45:33;1.30;;;1.30;;
64426;SDS011;50772;51.482;-0.580;2023-08-24T12:47:58;1.50;;;1.40;;
64426;SDS011;50772;51.482;-0.580;2023-08-24T12:50:24;1.63;;;1.47;;
64426;SDS011;50772;51.482;-0.580;2023-08-24T12:52:49;3.55;;;1.30;;
64426;SDS011;50772;51.482;-0.580;2023-08-24T12:55:20;1.30;;;1.30;;
64426;SDS011;50772;51.482;-0.580;2023-08-24T12:57:45;2.60;;;1.33;;
64426;SDS011;50772;51.482;-0.580;2023-08-24T13:00:11;3.25;;;1.58;;
64426;SDS011;50772;51.482;-0.580;2023-08-24T13:02:37;1.48;;;1.40;;
64426;SDS011;50772;51.482;-0.580;2023-08-24T13:05:05;1.37;;;1.30;;
64426;SDS011;50772;51.482;-0.580;2023-08-24T13:07:31;2.45;;;1.42;;
64426;SDS011;50772;51.482;-0.580;2023-08-24T13:09:56;1.60;;;1.50;;
64426;SDS011;50772;51.482;-0.580;2023-08-24T13:12:22;3.15;;;2.13;;
64426;SDS011;50772;51.482;-0.580;2023-08-24T13:14:49;1.63;;;1.30;;
64426;SDS011;50772;51.482;-0.580;2023-08-24T13:17:14;1.60;;;1.50;;
64426;SDS011;50772;51.482;-0.580;2023-08-24T13:19:39;1.10;;;1.10;;
64426;SDS011;50772;51.482;-0.580;2023-08-24T13:22:05;1.20;;;1.20;;
64426;SDS011;50772;51.482;-0.580;2023-08-24T13:24:30;1.30;;;1.20;;
64426;SDS011;50772;51.482;-0.580;2023-08-24T13:26:55;1.88;;;1.40;;
64426;SDS011;50772;51.482;-0.580;2023-08-24T13:29:21;4.97;;;1.40;;
64426;SDS011;50772;51.482;-0.580;2023-08-24T13:31:47;1.23;;;1.23;;
64426;SDS011;50772;51.482;-0.580;2023-08-24T13:34:15;7.97;;;1.40;;
64426;SDS011;50772;51.482;-0.580;2023-08-24T13:36:43;1.30;;;1.20;;
64426;SDS011;50772;51.482;-0.580;2023-08-24T13:39:09;1.53;;;1.53;;
64426;SDS011;50772;51.482;-0.580;2023-08-24T13:41:35;1.98;;;1.77;;
64426;SDS011;50772;51.482;-0.580;2023-08-24T13:44:01;1.38;;;1.35;;
64426;SDS011;50772;51.482;-0.580;2023-08-24T13:46:26;1.40;;;1.33;;
64426;SDS011;50772;51.482;-0.580;2023-08-24T13:48:57;1.50;;;1.40;;
64426;SDS011;50772;51.482;-0.580;2023-08-24T13:51:22;1.50;;;1.40;;
64426;SDS011;50772;51.482;-0.580;2023-08-24T13:53:47;2.53;;;1.33;;
64426;SDS011;50772;51.482;-0.580;2023-08-24T13:56:13;1.20;;;1.20;;
64426;SDS011;50772;51.482;-0.580;2023-08-24T13:58:39;1.60;;;1.50;;
64426;SDS011;50772;51.482;-0.580;2023-08-24T14:01:04;1.40;;;1.30;;
64426;SDS011;50772;51.482;-0.580;2023-08-24T14:03:29;1.63;;;1.52;;
64426;SDS011;50772;51.482;-0.580;2023-08-24T14:05:57;10.47;;;1.63;;
64426;SDS011;50772;51.482;-0.580;2023-08-24T14:08:22;1.33;;;1.30;;
64426;SDS011;50772;51.482;-0.580;2023-08-24T14:10:48;1.43;;;1.33;;
64426;SDS011;50772;51.482;-0.580;2023-08-24T14:13:14;1.40;;;1.30;;
64426;SDS011;50772;51.482;-0.580;2023-08-24T14:15:39;1.50;;;1.40;;
64426;SDS011;50772;51.482;-0.580;2023-08-24T14:18:04;1.37;;;1.27;;
64426;SDS011;50772;51.482;-0.580;2023-08-24T14:20:33;1.38;;;1.27;;
64426;SDS011;50772;51.482;-0.580;2023-08-24T14:22:58;1.42;;;1.42;;
64426;SDS011;50772;51.482;-0.580;2023-08-24T14:25:24;1.40;;;1.40;;
64426;SDS011;50772;51.482;-0.580;2023-08-24T14:27:49;3.28;;;1.70;;
64426;SDS011;50772;51.482;-0.580;2023-08-24T14:30:14;1.20;;;1.20;;
64426;SDS011;50772;51.482;-0.580;2023-08-24T14:32:39;1.60;;;1.50;;
64426;SDS011;50772;51.482;-0.580;2023-08-24T14:35:05;1.10;;;1.10;;
64426;SDS011;50772;51.482;-0.580;2023-08-24T14:37:30;1.75;;;1.23;;
64426;SDS011;50772;51.482;-0.580;2023-08-24T14:39:57;1.25;;;1.23;;
64426;SDS011;50772;51.482;-0.580;2023-08-24T14:42:23;2.00;;;1.30;;
64426;SDS011;50772;51.482;-0.580;2023-08-24T14:44:48;3.33;;;1.53;;
64426;SDS011;50772;51.482;-0.580;2023-08-24T14:47:13;1.10;;;1.10;;
64426;SDS011;50772;51.482;-0.580;2023-08-24T14:49:38;1.55;;;1.30;;